createdAt,value
2018-07-23T00:00:29.731Z,91.13
2018-07-23T00:01:29.832Z,90.84
2018-07-23T00:02:29.930Z,90.36
2018-07-23T00:03:30.046Z,90.45
2018-07-23T00:04:30.148Z,90.45
2018-07-23T00:05:30.243Z,90.26
2018-07-23T00:06:30.341Z,90.45
2018-07-23T00:07:30.439Z,90.55
2018-07-23T00:08:30.536Z,90.07
2018-07-23T00:09:30.636Z,90.36
2018-07-23T00:10:30.760Z,90.84
2018-07-23T00:11:30.864Z,91.03
2018-07-23T00:12:30.962Z,90.45
2018-07-23T00:13:31.063Z,90.75
2018-07-23T00:14:31.159Z,90.84
2018-07-23T00:15:31.258Z,90.75
2018-07-23T00:16:31.356Z,91.13
2018-07-23T00:17:31.469Z,90.84
2018-07-23T00:18:31.569Z,90.75
2018-07-23T00:19:31.667Z,89.98
2018-07-23T00:20:31.766Z,91.13
2018-07-23T00:21:31.868Z,91.42
2018-07-23T00:22:31.963Z,90.45
2018-07-23T00:23:32.063Z,90.07
2018-07-23T00:24:32.186Z,90.65
2018-07-23T00:25:32.300Z,90.75
2018-07-23T00:26:32.402Z,90.17
2018-07-23T00:27:32.504Z,90.75
2018-07-23T00:28:32.601Z,90.65
2018-07-23T00:29:32.700Z,90.36
2018-07-23T00:30:32.798Z,90.89
2018-07-23T00:31:32.895Z,90.80
2018-07-23T00:32:32.994Z,90.60
2018-07-23T00:33:33.094Z,90.84
2018-07-23T00:34:33.195Z,90.80
2018-07-23T00:35:33.292Z,90.99
2018-07-23T00:36:33.389Z,90.70
2018-07-23T00:37:33.487Z,91.18
2018-07-23T00:38:33.610Z,91.18
2018-07-23T00:39:33.712Z,91.08
2018-07-23T00:40:33.811Z,90.22
2018-07-23T00:41:33.910Z,90.31
2018-07-23T00:42:34.008Z,90.60
2018-07-23T00:43:34.107Z,90.70
2018-07-23T00:44:34.208Z,90.80
2018-07-23T00:45:34.321Z,90.70
2018-07-23T00:46:34.420Z,91.28
2018-07-23T00:47:34.519Z,91.18
2018-07-23T00:48:34.625Z,90.03
2018-07-23T00:49:34.716Z,90.99
2018-07-23T00:50:34.813Z,91.37
2018-07-23T00:51:34.912Z,91.18
2018-07-23T00:52:35.029Z,90.70
2018-07-23T00:53:35.130Z,91.18
2018-07-23T00:54:35.232Z,90.89
2018-07-23T00:55:35.337Z,90.80
2018-07-23T00:56:35.436Z,91.18
2018-07-23T00:57:35.533Z,91.37
2018-07-23T00:58:35.633Z,91.18
2018-07-23T00:59:35.747Z,90.99
2018-07-23T01:00:35.845Z,90.89
2018-07-23T01:01:35.946Z,90.60
2018-07-23T01:02:36.044Z,90.89
2018-07-23T01:03:36.141Z,90.99
2018-07-23T01:04:36.240Z,91.37
2018-07-23T01:05:36.343Z,91.18
2018-07-23T01:06:36.465Z,90.99
2018-07-23T01:07:36.564Z,91.75
2018-07-23T01:08:36.662Z,91.37
2018-07-23T01:09:36.762Z,90.84
2018-07-23T01:10:36.862Z,91.04
2018-07-23T01:11:36.979Z,91.04
2018-07-23T01:12:37.059Z,90.75
2018-07-23T01:13:37.172Z,90.99
2018-07-23T01:14:37.271Z,91.13
2018-07-23T01:15:37.368Z,91.04
2018-07-23T01:16:37.468Z,90.75
2018-07-23T01:17:37.566Z,91.71
2018-07-23T01:18:37.665Z,91.81
2018-07-23T01:19:37.758Z,91.81
2018-07-23T01:20:37.888Z,91.33
2018-07-23T01:21:37.986Z,91.33
2018-07-23T01:22:38.082Z,91.13
2018-07-23T01:23:38.183Z,91.52
2018-07-23T01:24:38.280Z,91.71
2018-07-23T01:25:38.377Z,91.61
2018-07-23T01:26:38.478Z,91.33
2018-07-23T01:27:38.591Z,91.33
2018-07-23T01:28:38.690Z,91.52
2018-07-23T01:29:38.790Z,91.42
2018-07-23T01:30:38.887Z,91.42
2018-07-23T01:31:38.987Z,91.71
2018-07-23T01:32:39.083Z,91.42
2018-07-23T01:33:39.187Z,91.90
2018-07-23T01:34:39.307Z,92.19
2018-07-23T01:35:39.402Z,92.00
2018-07-23T01:36:39.499Z,92.10
2018-07-23T01:37:39.590Z,91.81
2018-07-23T01:38:39.694Z,91.42
2018-07-23T01:39:39.793Z,91.52
2018-07-23T01:40:39.899Z,91.42
2018-07-23T01:41:39.990Z,91.33
2018-07-23T01:42:40.087Z,91.71
2018-07-23T01:43:40.183Z,91.57
2018-07-23T01:44:40.287Z,91.61
2018-07-23T01:45:40.384Z,91.47
2018-07-23T01:46:40.482Z,91.52
2018-07-23T01:47:40.583Z,91.42
2018-07-23T01:48:40.684Z,91.71
2018-07-23T01:49:40.781Z,91.13
2018-07-23T01:50:40.877Z,91.71
2018-07-23T01:51:40.977Z,91.86
2018-07-23T01:52:41.076Z,91.28
2018-07-23T01:53:41.176Z,91.61
2018-07-23T01:54:41.274Z,91.57
2018-07-23T01:55:41.371Z,91.96
2018-07-23T01:56:41.470Z,92.14
2018-07-23T01:57:41.569Z,92.14
2018-07-23T01:58:41.659Z,92.14
2018-07-23T01:59:41.769Z,91.96
2018-07-23T02:00:41.889Z,91.57
2018-07-23T02:01:41.974Z,91.38
2018-07-23T02:02:42.096Z,91.28
2018-07-23T02:03:42.122Z,91.57
2018-07-23T02:04:42.241Z,91.66
2018-07-23T02:05:42.357Z,92.14
2018-07-23T02:06:42.468Z,92.05
2018-07-23T02:07:42.574Z,91.76
2018-07-23T02:08:42.666Z,91.86
2018-07-23T02:09:42.754Z,91.38
2018-07-23T02:10:42.883Z,91.57
2018-07-23T02:11:42.967Z,91.57
2018-07-23T02:12:43.053Z,91.96
2018-07-23T02:13:43.153Z,92.05
2018-07-23T02:14:43.243Z,92.14
2018-07-23T02:15:43.376Z,91.96
2018-07-23T02:16:43.503Z,91.96
2018-07-23T02:17:43.551Z,91.86
2018-07-23T02:18:43.644Z,91.57
2018-07-23T02:19:43.764Z,91.96
2018-07-23T02:20:43.922Z,91.57
2018-07-23T02:21:44.032Z,91.38
2018-07-23T02:22:44.123Z,91.47
2018-07-23T02:23:44.213Z,91.66
2018-07-23T02:24:44.361Z,91.57
2018-07-23T02:25:44.467Z,91.47
2018-07-23T02:26:44.581Z,91.86
2018-07-23T02:27:44.679Z,91.66
2018-07-23T02:28:44.824Z,91.47
2018-07-23T02:29:44.922Z,91.33
2018-07-23T02:30:45.035Z,91.47
2018-07-23T02:31:45.127Z,92.00
2018-07-23T02:32:45.235Z,92.10
2018-07-23T02:33:45.327Z,91.62
2018-07-23T02:34:45.444Z,91.91
2018-07-23T02:35:45.534Z,92.10
2018-07-23T02:36:45.638Z,92.29
2018-07-23T02:37:45.727Z,92.10
2018-07-23T02:38:45.832Z,92.48
2018-07-23T02:39:45.923Z,92.77
2018-07-23T02:40:46.011Z,92.86
2018-07-23T02:41:46.119Z,93.63
2018-07-23T02:42:46.219Z,93.82
2018-07-23T02:43:46.320Z,93.54
2018-07-23T02:44:46.417Z,93.54
2018-07-23T02:45:46.549Z,93.63
2018-07-23T02:46:46.651Z,93.63
2018-07-23T02:47:46.737Z,93.54
2018-07-23T02:48:46.852Z,93.63
2018-07-23T02:49:46.937Z,93.44
2018-07-23T02:50:47.028Z,93.25
2018-07-23T02:51:47.134Z,93.25
2018-07-23T02:52:47.223Z,93.54
2018-07-23T02:53:47.315Z,93.63
2018-07-23T02:54:47.423Z,93.44
2018-07-23T02:55:47.526Z,93.63
2018-07-23T02:56:47.647Z,92.86
2018-07-23T02:57:47.750Z,92.96
2018-07-23T02:58:47.847Z,93.06
2018-07-23T02:59:47.951Z,92.58
2018-07-23T03:00:48.045Z,92.58
2018-07-23T03:01:48.144Z,92.86
2018-07-23T03:02:48.291Z,92.48
2018-07-23T03:03:48.384Z,92.68
2018-07-23T03:04:48.501Z,92.77
2018-07-23T03:05:48.629Z,92.86
2018-07-23T03:06:48.727Z,92.68
2018-07-23T03:07:48.828Z,92.86
2018-07-23T03:08:48.917Z,92.29
2018-07-23T03:09:49.031Z,92.29
2018-07-23T03:10:49.171Z,92.00
2018-07-23T03:11:49.268Z,92.10
2018-07-23T03:12:49.391Z,92.29
2018-07-23T03:13:49.490Z,92.48
2018-07-23T03:14:49.599Z,92.48
2018-07-23T03:15:49.703Z,92.39
2018-07-23T03:16:49.812Z,92.39
2018-07-23T03:17:49.913Z,92.29
2018-07-23T03:18:50.028Z,92.29
2018-07-23T03:19:50.125Z,92.39
2018-07-23T03:20:50.233Z,91.91
2018-07-23T03:21:50.405Z,92.33
2018-07-23T03:22:50.422Z,92.14
2018-07-23T03:23:50.515Z,91.91
2018-07-23T03:24:50.626Z,92.10
2018-07-23T03:25:50.719Z,91.91
2018-07-23T03:26:50.847Z,92.05
2018-07-23T03:27:50.948Z,92.10
2018-07-23T03:28:51.031Z,92.29
2018-07-23T03:29:51.135Z,92.00
2018-07-23T03:30:51.244Z,92.05
2018-07-23T03:31:51.334Z,92.05
2018-07-23T03:32:51.436Z,92.00
2018-07-23T03:33:51.537Z,92.00
2018-07-23T03:34:51.621Z,91.91
2018-07-23T03:35:51.723Z,91.72
2018-07-23T03:36:51.809Z,91.91
2018-07-23T03:37:51.907Z,91.81
2018-07-23T03:38:52.012Z,91.91
2018-07-23T03:39:52.134Z,92.10
2018-07-23T03:40:52.239Z,92.39
2018-07-23T03:41:52.336Z,92.19
2018-07-23T03:42:52.444Z,91.91
2018-07-23T03:43:52.541Z,92.10
2018-07-23T03:44:52.640Z,92.10
2018-07-23T03:45:52.746Z,91.91
2018-07-23T03:46:52.840Z,91.91
2018-07-23T03:47:52.938Z,92.29
2018-07-23T03:48:53.053Z,91.91
2018-07-23T03:49:53.149Z,91.91
2018-07-23T03:50:53.245Z,91.91
2018-07-23T03:51:53.345Z,91.91
2018-07-23T03:52:53.443Z,92.10
2018-07-23T03:53:53.553Z,92.14
2018-07-23T03:54:53.642Z,92.00
2018-07-23T03:55:53.742Z,91.91
2018-07-23T03:56:53.871Z,92.10
2018-07-23T03:57:53.954Z,91.91
2018-07-23T03:58:54.063Z,91.62
2018-07-23T03:59:54.168Z,91.96
2018-07-23T04:00:54.274Z,91.42
2018-07-23T04:01:54.370Z,91.33
2018-07-23T04:02:54.462Z,91.38
2018-07-23T04:03:54.561Z,91.38
2018-07-23T04:04:54.650Z,90.85
2018-07-23T04:05:54.761Z,90.99
2018-07-23T04:06:54.876Z,90.80
2018-07-23T04:07:54.973Z,91.05
2018-07-23T04:08:55.077Z,91.24
2018-07-23T04:09:55.185Z,91.62
2018-07-23T04:10:55.340Z,91.66
2018-07-23T04:11:55.375Z,91.62
2018-07-23T04:12:55.474Z,91.52
2018-07-23T04:13:55.570Z,91.47
2018-07-23T04:14:55.670Z,91.66
2018-07-23T04:15:55.770Z,91.62
2018-07-23T04:16:55.887Z,91.28
2018-07-23T04:17:55.985Z,91.28
2018-07-23T04:18:56.088Z,90.85
2018-07-23T04:19:56.186Z,90.90
2018-07-23T04:20:56.282Z,90.80
2018-07-23T04:21:56.387Z,90.85
2018-07-23T04:22:56.480Z,91.19
2018-07-23T04:23:56.602Z,90.99
2018-07-23T04:24:56.700Z,90.66
2018-07-23T04:25:56.798Z,90.28
2018-07-23T04:26:56.897Z,90.66
2018-07-23T04:27:57.002Z,90.52
2018-07-23T04:28:57.098Z,90.47
2018-07-23T04:29:57.198Z,90.13
2018-07-23T04:30:57.311Z,90.99
2018-07-23T04:31:57.410Z,90.52
2018-07-23T04:32:57.511Z,89.99
2018-07-23T04:33:57.610Z,90.13
2018-07-23T04:34:57.706Z,90.85
2018-07-23T04:35:57.805Z,90.61
2018-07-23T04:36:57.904Z,90.70
2018-07-23T04:37:58.076Z,89.84
2018-07-23T04:38:58.126Z,90.32
2018-07-23T04:39:58.224Z,90.52
2018-07-23T04:40:58.329Z,90.42
2018-07-23T04:41:58.417Z,90.13
2018-07-23T04:42:58.519Z,90.56
2018-07-23T04:43:58.614Z,91.05
2018-07-23T04:44:58.713Z,91.42
2018-07-23T04:45:58.814Z,92.10
2018-07-23T04:46:58.913Z,92.10
2018-07-23T04:47:59.019Z,91.62
2018-07-23T04:48:59.117Z,92.05
2018-07-23T04:49:59.214Z,91.62
2018-07-23T04:50:59.316Z,91.91
2018-07-23T04:51:59.414Z,92.00
2018-07-23T04:52:59.511Z,92.00
2018-07-23T04:53:59.613Z,92.05
2018-07-23T04:54:59.708Z,91.86
2018-07-23T04:55:59.807Z,91.38
2018-07-23T04:56:59.923Z,91.28
2018-07-23T04:58:00.007Z,90.99
2018-07-23T04:59:00.094Z,91.09
2018-07-23T05:00:00.188Z,90.90
2018-07-23T05:01:00.290Z,91.38
2018-07-23T05:02:00.387Z,90.80
2018-07-23T05:03:00.485Z,91.09
2018-07-23T05:04:00.587Z,90.95
2018-07-23T05:05:00.690Z,91.47
2018-07-23T05:06:00.785Z,91.57
2018-07-23T05:07:00.883Z,91.66
2018-07-23T05:08:00.980Z,91.52
2018-07-23T05:09:01.082Z,91.33
2018-07-23T05:10:01.183Z,92.10
2018-07-23T05:11:01.285Z,92.29
2018-07-23T05:12:01.387Z,92.53
2018-07-23T05:13:01.487Z,92.72
2018-07-23T05:14:01.584Z,91.57
2018-07-23T05:15:01.684Z,91.57
2018-07-23T05:16:01.844Z,91.47
2018-07-23T05:17:01.883Z,91.28
2018-07-23T05:18:01.984Z,91.42
2018-07-23T05:19:02.088Z,91.04
2018-07-23T05:20:02.189Z,90.08
2018-07-23T05:21:02.286Z,90.27
2018-07-23T05:22:02.385Z,90.56
2018-07-23T05:23:02.487Z,90.12
2018-07-23T05:24:02.583Z,89.74
2018-07-23T05:25:02.689Z,89.64
2018-07-23T05:26:02.812Z,89.74
2018-07-23T05:27:02.910Z,89.36
2018-07-23T05:28:03.010Z,89.16
2018-07-23T05:29:03.110Z,88.39
2018-07-23T05:30:03.212Z,88.49
2018-07-23T05:31:03.304Z,88.49
2018-07-23T05:32:03.403Z,88.39
2018-07-23T05:33:03.528Z,88.68
2018-07-23T05:34:03.633Z,88.30
2018-07-23T05:35:03.731Z,88.87
2018-07-23T05:36:03.826Z,89.45
2018-07-23T05:37:03.923Z,89.07
2018-07-23T05:38:04.086Z,89.74
2018-07-23T05:39:04.123Z,88.87
2018-07-23T05:40:04.235Z,89.01
2018-07-23T05:41:04.339Z,87.52
2018-07-23T05:42:04.438Z,86.99
2018-07-23T05:43:04.535Z,85.30
2018-07-23T05:44:04.637Z,83.70
2018-07-23T05:45:04.744Z,82.54
2018-07-23T05:46:04.843Z,81.52
2018-07-23T05:47:04.953Z,80.12
2018-07-23T05:48:05.058Z,79.10
2018-07-23T05:49:05.157Z,78.03
2018-07-23T05:50:05.260Z,77.11
2018-07-23T05:51:05.363Z,76.24
2018-07-23T05:52:05.464Z,75.41
2018-07-23T05:53:05.568Z,74.83
2018-07-23T05:54:05.666Z,74.35
2018-07-23T05:55:05.771Z,73.52
2018-07-23T05:56:05.871Z,73.03
2018-07-23T05:57:05.979Z,72.68
2018-07-23T05:58:06.082Z,71.62
2018-07-23T05:59:06.180Z,71.46
2018-07-23T06:00:06.284Z,70.88
2018-07-23T06:01:06.386Z,71.01
2018-07-23T06:02:06.491Z,70.34
2018-07-23T06:03:06.596Z,69.08
2018-07-23T06:04:06.705Z,69.01
2018-07-23T06:05:06.809Z,68.15
2018-07-23T06:06:06.913Z,67.50
2018-07-23T06:07:07.018Z,67.30
2018-07-23T06:08:07.124Z,67.11
2018-07-23T06:09:07.220Z,66.95
2018-07-23T06:10:07.327Z,66.72
2018-07-23T06:11:07.430Z,66.17
2018-07-23T06:12:07.537Z,65.59
2018-07-23T06:13:07.689Z,65.79
2018-07-23T06:14:07.743Z,65.40
2018-07-23T06:15:07.846Z,64.56
2018-07-23T06:16:07.947Z,64.95
2018-07-23T06:17:08.051Z,64.20
2018-07-23T06:18:08.163Z,63.62
2018-07-23T06:19:08.262Z,64.01
2018-07-23T06:20:08.370Z,63.78
2018-07-23T06:21:08.476Z,63.69
2018-07-23T06:22:08.582Z,64.65
2018-07-23T06:23:08.711Z,64.17
2018-07-23T06:24:08.814Z,63.72
2018-07-23T06:25:08.920Z,64.20
2018-07-23T06:26:09.028Z,63.78
2018-07-23T06:27:09.134Z,64.85
2018-07-23T06:28:09.243Z,64.95
2018-07-23T06:29:09.346Z,64.07
2018-07-23T06:30:09.476Z,64.17
2018-07-23T06:31:09.555Z,65.01
2018-07-23T06:32:09.661Z,65.34
2018-07-23T06:33:09.769Z,66.08
2018-07-23T06:34:09.876Z,65.79
2018-07-23T06:35:09.985Z,66.56
2018-07-23T06:36:10.094Z,66.14
2018-07-23T06:37:10.204Z,66.43
2018-07-23T06:38:10.321Z,66.14
2018-07-23T06:39:10.425Z,66.82
2018-07-23T06:40:10.526Z,67.50
2018-07-23T06:41:10.634Z,67.60
2018-07-23T06:42:10.740Z,67.60
2018-07-23T06:43:10.850Z,68.33
2018-07-23T06:44:10.949Z,69.40
2018-07-23T06:45:11.071Z,69.21
2018-07-23T06:46:11.165Z,69.01
2018-07-23T06:47:11.267Z,69.11
2018-07-23T06:48:11.374Z,68.98
2018-07-23T06:49:11.484Z,69.08
2018-07-23T06:50:11.590Z,69.27
2018-07-23T06:51:11.691Z,69.46
2018-07-23T06:52:11.818Z,69.95
2018-07-23T06:53:12.693Z,69.79
2018-07-23T06:54:12.095Z,69.79
2018-07-23T06:55:12.219Z,70.08
2018-07-23T06:56:12.318Z,69.21
2018-07-23T06:57:12.473Z,69.79
2018-07-23T06:58:12.586Z,69.31
2018-07-23T06:59:13.022Z,69.01
2018-07-23T07:00:12.838Z,69.31
2018-07-23T07:01:13.065Z,69.59
2018-07-23T07:02:13.122Z,69.59
2018-07-23T07:03:13.108Z,69.11
2018-07-23T07:04:13.228Z,68.63
2018-07-23T07:05:13.333Z,68.37
2018-07-23T07:06:13.567Z,68.27
2018-07-23T07:07:13.549Z,69.34
2018-07-23T07:08:13.635Z,69.21
2018-07-23T07:09:13.892Z,69.01
2018-07-23T07:10:13.886Z,69.15
2018-07-23T07:11:14.019Z,68.95
2018-07-23T07:12:14.119Z,69.11
2018-07-23T07:13:14.220Z,68.24
2018-07-23T07:14:14.384Z,68.73
2018-07-23T07:15:14.470Z,68.63
2018-07-23T07:16:14.748Z,68.91
2018-07-23T07:17:14.817Z,69.01
2018-07-23T07:18:14.910Z,69.69
2018-07-23T07:19:15.129Z,69.11
2018-07-23T07:20:15.139Z,69.21
2018-07-23T07:21:15.331Z,70.18
2018-07-23T07:22:15.457Z,69.69
2018-07-23T07:23:15.683Z,69.98
2018-07-23T07:24:15.760Z,69.59
2018-07-23T07:25:15.992Z,69.79
2018-07-23T07:26:16.007Z,69.21
2018-07-23T07:27:16.171Z,69.50
2018-07-23T07:28:16.146Z,69.40
2018-07-23T07:29:16.268Z,69.98
2018-07-23T07:30:16.386Z,69.21
2018-07-23T07:31:16.488Z,69.15
2018-07-23T07:32:16.646Z,68.63
2018-07-23T07:33:16.745Z,68.95
2018-07-23T07:34:16.842Z,67.98
2018-07-23T07:35:16.946Z,67.98
2018-07-23T07:36:17.071Z,68.95
2018-07-23T07:37:17.191Z,69.15
2018-07-23T07:38:17.578Z,68.37
2018-07-23T07:39:17.422Z,68.18
2018-07-23T07:40:17.574Z,68.18
2018-07-23T07:41:17.741Z,67.79
2018-07-23T07:42:17.983Z,67.63
2018-07-23T07:43:17.858Z,67.40
2018-07-23T07:44:17.948Z,67.79
2018-07-23T07:45:18.147Z,67.69
2018-07-23T07:46:18.132Z,67.72
2018-07-23T07:47:18.246Z,67.72
2018-07-23T07:48:18.343Z,67.34
2018-07-23T07:49:18.477Z,66.95
2018-07-23T07:50:18.618Z,66.66
2018-07-23T07:51:18.707Z,66.85
2018-07-23T07:52:18.882Z,67.14
2018-07-23T07:53:18.872Z,66.69
2018-07-23T07:54:18.977Z,66.66
2018-07-23T07:55:19.093Z,66.99
2018-07-23T07:56:19.249Z,66.60
2018-07-23T07:57:19.357Z,66.20
2018-07-23T07:58:19.480Z,66.40
2018-07-23T07:59:19.624Z,67.27
2018-07-23T08:00:19.699Z,66.20
2018-07-23T08:01:19.836Z,65.82
2018-07-23T08:02:19.940Z,66.20
2018-07-23T08:03:20.043Z,66.11
2018-07-23T08:04:20.144Z,66.30
2018-07-23T08:05:20.243Z,66.60
2018-07-23T08:06:20.357Z,65.56
2018-07-23T08:07:20.452Z,65.08
2018-07-23T08:08:20.562Z,64.59
2018-07-23T08:09:20.663Z,64.11
2018-07-23T08:10:20.772Z,64.33
2018-07-23T08:11:20.878Z,64.04
2018-07-23T08:12:20.999Z,63.75
2018-07-23T08:13:21.108Z,64.14
2018-07-23T08:14:21.221Z,63.56
2018-07-23T08:15:21.330Z,63.85
2018-07-23T08:16:21.440Z,63.78
2018-07-23T08:17:21.544Z,62.91
2018-07-23T08:18:21.705Z,62.04
2018-07-23T08:19:21.825Z,61.94
2018-07-23T08:20:21.966Z,61.16
2018-07-23T08:21:22.055Z,60.68
2018-07-23T08:22:22.146Z,60.61
2018-07-23T08:23:22.235Z,60.90
2018-07-23T08:24:22.339Z,60.90
2018-07-23T08:25:22.470Z,60.90
2018-07-23T08:26:22.609Z,61.48
2018-07-23T08:27:22.719Z,61.29
2018-07-23T08:28:22.828Z,61.38
2018-07-23T08:29:22.967Z,61.22
2018-07-23T08:30:23.026Z,62.26
2018-07-23T08:31:23.178Z,61.41
2018-07-23T08:32:23.379Z,61.41
2018-07-23T08:33:23.409Z,62.68
2018-07-23T08:34:23.514Z,61.51
2018-07-23T08:35:23.623Z,62.19
2018-07-23T08:36:23.717Z,61.51
2018-07-23T08:37:23.824Z,61.05
2018-07-23T08:38:23.916Z,60.08
2018-07-23T08:39:24.021Z,59.99
2018-07-23T08:40:24.122Z,60.60
2018-07-23T08:41:24.230Z,60.41
2018-07-23T08:42:24.407Z,58.95
2018-07-23T08:43:24.481Z,58.56
2018-07-23T08:44:24.585Z,59.23
2018-07-23T08:45:24.683Z,59.14
2018-07-23T08:46:24.833Z,57.97
2018-07-23T08:47:24.959Z,58.56
2018-07-23T08:48:25.064Z,58.95
2018-07-23T08:49:25.212Z,58.46
2018-07-23T08:50:25.319Z,57.78
2018-07-23T08:51:25.461Z,58.07
2018-07-23T08:52:25.548Z,58.07
2018-07-23T08:53:25.675Z,58.56
2018-07-23T08:54:25.788Z,58.36
2018-07-23T08:55:25.884Z,57.97
2018-07-23T08:56:25.985Z,57.00
2018-07-23T08:57:26.136Z,55.93
2018-07-23T08:58:26.198Z,55.64
2018-07-23T08:59:26.307Z,55.83
2018-07-23T09:00:26.431Z,55.83
2018-07-23T09:01:26.533Z,55.47
2018-07-23T09:02:26.649Z,55.96
2018-07-23T09:03:26.786Z,55.08
2018-07-23T09:04:26.880Z,54.47
2018-07-23T09:05:27.034Z,55.64
2018-07-23T09:06:27.160Z,55.15
2018-07-23T09:07:27.261Z,54.86
2018-07-23T09:08:27.424Z,54.25
2018-07-23T09:09:27.501Z,54.83
2018-07-23T09:10:27.625Z,54.86
2018-07-23T09:11:27.737Z,55.54
2018-07-23T09:12:27.832Z,56.64
2018-07-23T09:13:27.943Z,55.08
2018-07-23T09:14:28.055Z,54.60
2018-07-23T09:15:28.167Z,51.48
2018-07-23T09:16:28.272Z,50.43
2018-07-23T09:17:28.385Z,49.27
2018-07-23T09:18:28.492Z,48.58
2018-07-23T09:19:28.607Z,48.12
2018-07-23T09:20:28.742Z,48.78
2018-07-23T09:21:28.841Z,47.71
2018-07-23T09:22:28.949Z,48.22
2018-07-23T09:23:29.055Z,46.47
2018-07-23T09:24:29.167Z,46.59
2018-07-23T09:25:29.274Z,46.88
2018-07-23T09:26:29.381Z,46.49
2018-07-23T09:27:29.486Z,46.88
2018-07-23T09:28:29.598Z,45.44
2018-07-23T09:29:29.710Z,44.56
2018-07-23T09:30:29.810Z,44.56
2018-07-23T09:31:29.919Z,44.66
2018-07-23T09:32:30.033Z,44.27
2018-07-23T09:33:30.137Z,44.78
2018-07-23T09:34:30.246Z,44.66
2018-07-23T09:35:30.372Z,44.93
2018-07-23T09:36:30.484Z,45.42
2018-07-23T09:37:30.593Z,45.61
2018-07-23T09:38:30.698Z,46.12
2018-07-23T09:39:30.806Z,45.44
2018-07-23T09:40:30.916Z,45.64
2018-07-23T09:41:31.029Z,45.34
2018-07-23T09:42:31.124Z,45.34
2018-07-23T09:43:31.240Z,45.05
2018-07-23T09:44:31.344Z,44.85
2018-07-23T09:45:31.501Z,44.17
2018-07-23T09:46:31.559Z,44.48
2018-07-23T09:47:31.672Z,44.29
2018-07-23T09:48:31.777Z,43.78
2018-07-23T09:49:31.879Z,44.17
2018-07-23T09:50:31.991Z,43.98
2018-07-23T09:51:32.100Z,44.37
2018-07-23T09:52:32.209Z,44.66
2018-07-23T09:53:32.316Z,44.76
2018-07-23T09:54:32.472Z,44.17
2018-07-23T09:55:32.546Z,44.19
2018-07-23T09:56:32.653Z,44.19
2018-07-23T09:57:32.758Z,44.27
2018-07-23T09:58:32.867Z,44.15
2018-07-23T09:59:32.979Z,45.42
2018-07-23T10:00:33.085Z,44.05
2018-07-23T10:01:33.194Z,44.81
2018-07-23T10:02:33.304Z,45.29
2018-07-23T10:03:33.450Z,45.88
2018-07-23T10:04:33.519Z,46.37
2018-07-23T10:05:33.629Z,45.81
2018-07-23T10:06:33.738Z,46.69
2018-07-23T10:07:33.845Z,46.00
2018-07-23T10:08:33.951Z,46.20
2018-07-23T10:09:34.061Z,45.22
2018-07-23T10:10:34.170Z,45.44
2018-07-23T10:11:34.276Z,45.46
2018-07-23T10:12:34.387Z,45.46
2018-07-23T10:13:34.494Z,44.80
2018-07-23T10:14:34.602Z,43.92
2018-07-23T10:15:34.711Z,44.02
2018-07-23T10:16:34.822Z,44.70
2018-07-23T10:17:34.931Z,44.02
2018-07-23T10:18:35.043Z,44.24
2018-07-23T10:19:35.150Z,44.24
2018-07-23T10:20:35.262Z,42.48
2018-07-23T10:21:35.367Z,41.60
2018-07-23T10:22:35.473Z,42.19
2018-07-23T10:23:35.583Z,42.58
2018-07-23T10:24:35.694Z,41.60
2018-07-23T10:25:35.800Z,42.11
2018-07-23T10:26:35.912Z,41.42
2018-07-23T10:27:36.020Z,41.72
2018-07-23T10:28:36.130Z,41.52
2018-07-23T10:29:36.310Z,40.74
2018-07-23T10:30:36.349Z,40.84
2018-07-23T10:31:36.474Z,40.17
2018-07-23T10:32:36.567Z,39.98
2018-07-23T10:33:36.670Z,39.88
2018-07-23T10:34:36.776Z,40.76
2018-07-23T10:35:36.889Z,40.88
2018-07-23T10:36:36.993Z,39.67
2018-07-23T10:37:37.103Z,39.98
2018-07-23T10:38:37.207Z,40.08
2018-07-23T10:39:37.316Z,41.13
2018-07-23T10:40:37.424Z,40.84
2018-07-23T10:41:37.532Z,40.84
2018-07-23T10:42:37.646Z,40.94
2018-07-23T10:43:37.756Z,41.23
2018-07-23T10:44:37.863Z,41.13
2018-07-23T10:45:37.978Z,40.94
2018-07-23T10:46:38.089Z,41.13
2018-07-23T10:47:38.192Z,41.82
2018-07-23T10:48:38.302Z,41.23
2018-07-23T10:49:38.415Z,41.02
2018-07-23T10:50:38.521Z,41.70
2018-07-23T10:51:38.627Z,41.31
2018-07-23T10:52:38.737Z,41.67
2018-07-23T10:53:38.843Z,40.99
2018-07-23T10:54:38.953Z,41.66
2018-07-23T10:55:39.058Z,41.95
2018-07-23T10:56:39.165Z,41.46
2018-07-23T10:57:39.274Z,41.91
2018-07-23T10:58:39.379Z,42.88
2018-07-23T10:59:39.486Z,43.23
2018-07-23T11:00:39.599Z,43.71
2018-07-23T11:01:39.709Z,43.44
2018-07-23T11:02:39.816Z,43.85
2018-07-23T11:03:39.922Z,42.40
2018-07-23T11:04:40.032Z,41.93
2018-07-23T11:05:40.150Z,42.59
2018-07-23T11:06:40.257Z,42.12
2018-07-23T11:07:40.365Z,41.32
2018-07-23T11:08:40.472Z,41.63
2018-07-23T11:09:40.581Z,40.64
2018-07-23T11:10:40.715Z,41.54
2018-07-23T11:11:40.832Z,41.66
2018-07-23T11:12:40.974Z,41.36
2018-07-23T11:13:41.041Z,40.97
2018-07-23T11:14:41.145Z,40.88
2018-07-23T11:15:41.253Z,40.50
2018-07-23T11:16:41.364Z,40.50
2018-07-23T11:17:41.478Z,39.33
2018-07-23T11:18:41.582Z,39.23
2018-07-23T11:19:41.694Z,40.01
2018-07-23T11:20:41.794Z,39.62
2018-07-23T11:21:41.905Z,39.45
2018-07-23T11:22:42.025Z,40.14
2018-07-23T11:23:42.118Z,38.77
2018-07-23T11:24:45.542Z,38.59
2018-07-23T11:25:42.341Z,38.98
2018-07-23T11:26:42.480Z,37.81
2018-07-23T11:27:42.572Z,37.01
2018-07-23T11:28:42.710Z,37.29
2018-07-23T11:29:42.818Z,37.96
2018-07-23T11:30:42.920Z,38.26
2018-07-23T11:31:43.030Z,37.93
2018-07-23T11:32:43.131Z,37.65
2018-07-23T11:33:43.248Z,38.34
2018-07-23T11:34:43.347Z,38.94
2018-07-23T11:35:43.442Z,38.34
2018-07-23T11:36:43.578Z,38.73
2018-07-23T11:37:43.685Z,39.04
2018-07-23T11:38:43.783Z,38.26
2018-07-23T11:39:43.914Z,37.38
2018-07-23T11:40:44.018Z,37.89
2018-07-23T11:41:44.131Z,37.02
2018-07-23T11:42:44.271Z,37.02
2018-07-23T11:43:44.322Z,36.44
2018-07-23T11:44:44.444Z,35.17
2018-07-23T11:45:44.546Z,36.05
2018-07-23T11:46:44.646Z,35.38
2018-07-23T11:47:44.776Z,35.09
2018-07-23T11:48:44.888Z,34.50
2018-07-23T11:49:44.999Z,34.91
2018-07-23T11:50:45.138Z,35.99
2018-07-23T11:51:45.210Z,36.28
2018-07-23T11:52:45.323Z,36.08
2018-07-23T11:53:45.493Z,34.54
2018-07-23T11:54:45.553Z,34.64
2018-07-23T11:55:45.661Z,35.13
2018-07-23T11:56:45.826Z,35.61
2018-07-23T11:57:45.872Z,34.64
2018-07-23T11:58:45.981Z,34.64
2018-07-23T11:59:46.088Z,34.74
2018-07-23T12:00:46.206Z,35.32
2018-07-23T12:01:46.335Z,35.13
2018-07-23T12:02:46.425Z,36.00
2018-07-23T12:03:46.546Z,35.71
2018-07-23T12:04:46.644Z,35.13
2018-07-23T12:05:46.751Z,33.26
2018-07-23T12:06:46.856Z,33.92
2018-07-23T12:07:46.969Z,34.89
2018-07-23T12:08:47.076Z,34.41
2018-07-23T12:09:47.186Z,34.23
2018-07-23T12:10:47.285Z,33.54
2018-07-23T12:11:47.436Z,33.53
2018-07-23T12:12:47.493Z,34.19
2018-07-23T12:13:47.590Z,34.68
2018-07-23T12:14:47.699Z,34.48
2018-07-23T12:15:47.813Z,34.00
2018-07-23T12:16:47.910Z,34.01
2018-07-23T12:17:48.022Z,33.80
2018-07-23T12:18:48.129Z,34.48
2018-07-23T12:19:48.253Z,34.38
2018-07-23T12:20:48.351Z,34.77
2018-07-23T12:21:48.459Z,35.25
2018-07-23T12:22:48.568Z,36.63
2018-07-23T12:23:48.683Z,35.95
2018-07-23T12:24:48.784Z,35.85
2018-07-23T12:25:48.897Z,35.87
2018-07-23T12:26:48.996Z,36.94
2018-07-23T12:27:49.110Z,35.87
2018-07-23T12:28:49.217Z,36.28
2018-07-23T12:29:49.332Z,35.69
2018-07-23T12:30:49.448Z,35.30
2018-07-23T12:31:49.551Z,34.52
2018-07-23T12:32:49.644Z,34.81
2018-07-23T12:33:49.806Z,34.54
2018-07-23T12:34:49.876Z,34.72
2018-07-23T12:35:49.987Z,34.03
2018-07-23T12:36:50.107Z,34.52
2018-07-23T12:37:50.205Z,34.74
2018-07-23T12:38:50.331Z,35.01
2018-07-23T12:39:50.504Z,34.62
2018-07-23T12:40:50.567Z,35.13
2018-07-23T12:41:50.681Z,34.64
2018-07-23T12:42:50.785Z,34.75
2018-07-23T12:43:50.894Z,34.64
2018-07-23T12:44:51.021Z,34.64
2018-07-23T12:45:51.108Z,34.44
2018-07-23T12:46:51.203Z,34.44
2018-07-23T12:47:51.314Z,34.74
2018-07-23T12:48:51.426Z,34.52
2018-07-23T12:49:51.526Z,34.52
2018-07-23T12:50:51.642Z,35.11
2018-07-23T12:51:51.756Z,34.54
2018-07-23T12:52:51.875Z,33.84
2018-07-23T12:53:51.994Z,33.36